sensor_id;sensor_type;location;lat;lon;timestamp;P1;durP1;ratioP1;P2;durP2;ratioP2
27209;SDS011;14721;42.668;23.386;2022-10-19T00:02:06;10.03;;;4.63;;
27209;SDS011;14721;42.668;23.386;2022-10-19T00:04:31;8.80;;;4.60;;
27209;SDS011;14721;42.668;23.386;2022-10-19T00:06:57;10.47;;;4.07;;
27209;SDS011;14721;42.668;23.386;2022-10-19T00:09:24;9.13;;;3.73;;
27209;SDS011;14721;42.668;23.386;2022-10-19T00:11:50;5.57;;;3.37;;
27209;SDS011;14721;42.668;23.386;2022-10-19T00:14:19;9.73;;;3.73;;
27209;SDS011;14721;42.668;23.386;2022-10-19T00:16:47;7.67;;;3.20;;
27209;SDS011;14721;42.668;23.386;2022-10-19T00:19:16;10.53;;;3.63;;
27209;SDS011;14721;42.668;23.386;2022-10-19T00:21:44;7.87;;;4.43;;
27209;SDS011;14721;42.668;23.386;2022-10-19T00:24:10;5.73;;;3.33;;
27209;SDS011;14721;42.668;23.386;2022-10-19T00:26:36;6.30;;;3.93;;
27209;SDS011;14721;42.668;23.386;2022-10-19T00:29:02;7.93;;;3.80;;
27209;SDS011;14721;42.668;23.386;2022-10-19T00:31:28;6.43;;;3.37;;
27209;SDS011;14721;42.668;23.386;2022-10-19T00:33:55;6.73;;;3.80;;
27209;SDS011;14721;42.668;23.386;2022-10-19T00:36:32;7.67;;;3.83;;
27209;SDS011;14721;42.668;23.386;2022-10-19T00:38:59;5.37;;;3.80;;
27209;SDS011;14721;42.668;23.386;2022-10-19T00:41:27;6.53;;;3.23;;
27209;SDS011;14721;42.668;23.386;2022-10-19T00:46:20;8.17;;;3.97;;
27209;SDS011;14721;42.668;23.386;2022-10-19T00:48:47;6.30;;;3.53;;
27209;SDS011;14721;42.668;23.386;2022-10-19T00:51:13;8.13;;;3.60;;
27209;SDS011;14721;42.668;23.386;2022-10-19T00:53:39;7.40;;;3.97;;
27209;SDS011;14721;42.668;23.386;2022-10-19T00:56:08;7.47;;;3.60;;
27209;SDS011;14721;42.668;23.386;2022-10-19T00:58:37;10.23;;;3.73;;
27209;SDS011;14721;42.668;23.386;2022-10-19T01:01:03;14.73;;;4.60;;
27209;SDS011;14721;42.668;23.386;2022-10-19T01:03:32;10.43;;;4.33;;
27209;SDS011;14721;42.668;23.386;2022-10-19T01:05:58;6.63;;;3.40;;
27209;SDS011;14721;42.668;23.386;2022-10-19T01:08:24;9.00;;;4.33;;
27209;SDS011;14721;42.668;23.386;2022-10-19T01:10:53;7.30;;;3.70;;
27209;SDS011;14721;42.668;23.386;2022-10-19T01:13:53;6.13;;;3.70;;
27209;SDS011;14721;42.668;23.386;2022-10-19T01:19:26;9.07;;;4.17;;
27209;SDS011;14721;42.668;23.386;2022-10-19T01:24:49;10.03;;;4.33;;
27209;SDS011;14721;42.668;23.386;2022-10-19T01:32:38;8.00;;;3.90;;
27209;SDS011;14721;42.668;23.386;2022-10-19T01:38:28;7.43;;;4.07;;
27209;SDS011;14721;42.668;23.386;2022-10-19T01:40:54;7.87;;;4.53;;
27209;SDS011;14721;42.668;23.386;2022-10-19T01:43:47;8.70;;;4.00;;
27209;SDS011;14721;42.668;23.386;2022-10-19T01:46:25;7.13;;;4.03;;
27209;SDS011;14721;42.668;23.386;2022-10-19T01:49:10;5.90;;;3.40;;
27209;SDS011;14721;42.668;23.386;2022-10-19T01:51:55;9.20;;;4.13;;
27209;SDS011;14721;42.668;23.386;2022-10-19T01:54:24;7.83;;;3.90;;
27209;SDS011;14721;42.668;23.386;2022-10-19T01:56:56;7.37;;;3.93;;
27209;SDS011;14721;42.668;23.386;2022-10-19T01:59:24;11.03;;;4.73;;
27209;SDS011;14721;42.668;23.386;2022-10-19T02:01:51;8.77;;;4.03;;
27209;SDS011;14721;42.668;23.386;2022-10-19T02:04:20;7.93;;;4.07;;
27209;SDS011;14721;42.668;23.386;2022-10-19T02:06:48;9.80;;;4.77;;
27209;SDS011;14721;42.668;23.386;2022-10-19T02:09:15;11.10;;;4.17;;
27209;SDS011;14721;42.668;23.386;2022-10-19T02:11:43;16.00;;;5.27;;
27209;SDS011;14721;42.668;23.386;2022-10-19T02:14:15;12.27;;;4.77;;
27209;SDS011;14721;42.668;23.386;2022-10-19T02:16:45;11.23;;;5.37;;
27209;SDS011;14721;42.668;23.386;2022-10-19T02:19:19;10.20;;;4.87;;
27209;SDS011;14721;42.668;23.386;2022-10-19T02:21:45;14.03;;;6.13;;
27209;SDS011;14721;42.668;23.386;2022-10-19T02:24:11;11.97;;;5.60;;
27209;SDS011;14721;42.668;23.386;2022-10-19T02:26:37;12.10;;;5.27;;
27209;SDS011;14721;42.668;23.386;2022-10-19T02:29:04;9.83;;;5.10;;
27209;SDS011;14721;42.668;23.386;2022-10-19T02:31:30;13.53;;;5.33;;
27209;SDS011;14721;42.668;23.386;2022-10-19T02:33:56;10.67;;;5.67;;
27209;SDS011;14721;42.668;23.386;2022-10-19T02:36:21;11.80;;;5.50;;
27209;SDS011;14721;42.668;23.386;2022-10-19T02:38:47;9.00;;;4.93;;
27209;SDS011;14721;42.668;23.386;2022-10-19T02:43:47;6.97;;;4.40;;
27209;SDS011;14721;42.668;23.386;2022-10-19T02:46:17;8.83;;;3.97;;
27209;SDS011;14721;42.668;23.386;2022-10-19T02:48:49;9.83;;;4.20;;
27209;SDS011;14721;42.668;23.386;2022-10-19T02:51:35;7.20;;;3.97;;
27209;SDS011;14721;42.668;23.386;2022-10-19T02:54:02;7.10;;;3.83;;
27209;SDS011;14721;42.668;23.386;2022-10-19T02:56:30;8.67;;;4.43;;
27209;SDS011;14721;42.668;23.386;2022-10-19T02:58:56;9.00;;;4.10;;
27209;SDS011;14721;42.668;23.386;2022-10-19T03:01:22;9.30;;;4.87;;
27209;SDS011;14721;42.668;23.386;2022-10-19T03:03:48;7.97;;;4.10;;
27209;SDS011;14721;42.668;23.386;2022-10-19T03:06:14;10.23;;;4.40;;
27209;SDS011;14721;42.668;23.386;2022-10-19T03:08:39;12.57;;;4.50;;
27209;SDS011;14721;42.668;23.386;2022-10-19T03:11:05;9.30;;;4.70;;
27209;SDS011;14721;42.668;23.386;2022-10-19T03:13:31;8.23;;;4.67;;
27209;SDS011;14721;42.668;23.386;2022-10-19T03:15:57;6.50;;;4.10;;
27209;SDS011;14721;42.668;23.386;2022-10-19T03:18:29;10.50;;;4.40;;
27209;SDS011;14721;42.668;23.386;2022-10-19T03:21:02;8.07;;;4.20;;
27209;SDS011;14721;42.668;23.386;2022-10-19T03:23:29;8.67;;;4.80;;
27209;SDS011;14721;42.668;23.386;2022-10-19T03:25:54;11.37;;;4.10;;
27209;SDS011;14721;42.668;23.386;2022-10-19T03:28:20;6.27;;;4.00;;
27209;SDS011;14721;42.668;23.386;2022-10-19T03:30:45;10.73;;;4.30;;
27209;SDS011;14721;42.668;23.386;2022-10-19T03:33:11;11.80;;;4.47;;
27209;SDS011;14721;42.668;23.386;2022-10-19T03:35:37;7.30;;;4.67;;
27209;SDS011;14721;42.668;23.386;2022-10-19T03:38:02;7.67;;;3.80;;
27209;SDS011;14721;42.668;23.386;2022-10-19T03:40:28;12.27;;;4.50;;
27209;SDS011;14721;42.668;23.386;2022-10-19T03:42:53;8.20;;;3.90;;
27209;SDS011;14721;42.668;23.386;2022-10-19T03:45:19;10.77;;;5.00;;
27209;SDS011;14721;42.668;23.386;2022-10-19T03:47:49;7.53;;;4.57;;
27209;SDS011;14721;42.668;23.386;2022-10-19T03:50:15;10.53;;;4.70;;
27209;SDS011;14721;42.668;23.386;2022-10-19T03:52:42;11.50;;;5.20;;
27209;SDS011;14721;42.668;23.386;2022-10-19T03:55:08;6.60;;;4.10;;
27209;SDS011;14721;42.668;23.386;2022-10-19T03:57:35;12.00;;;4.83;;
27209;SDS011;14721;42.668;23.386;2022-10-19T04:00:02;8.07;;;3.43;;
27209;SDS011;14721;42.668;23.386;2022-10-19T04:02:29;7.27;;;3.73;;
27209;SDS011;14721;42.668;23.386;2022-10-19T04:04:55;11.03;;;4.33;;
27209;SDS011;14721;42.668;23.386;2022-10-19T04:07:20;8.20;;;4.40;;
27209;SDS011;14721;42.668;23.386;2022-10-19T04:09:46;6.03;;;3.60;;
27209;SDS011;14721;42.668;23.386;2022-10-19T04:12:12;6.20;;;3.37;;
27209;SDS011;14721;42.668;23.386;2022-10-19T04:14:37;13.10;;;3.70;;
27209;SDS011;14721;42.668;23.386;2022-10-19T04:17:03;8.23;;;4.50;;
27209;SDS011;14721;42.668;23.386;2022-10-19T04:19:29;9.83;;;3.50;;
27209;SDS011;14721;42.668;23.386;2022-10-19T04:21:55;5.17;;;2.83;;
27209;SDS011;14721;42.668;23.386;2022-10-19T04:24:22;12.80;;;3.60;;
27209;SDS011;14721;42.668;23.386;2022-10-19T04:26:49;7.13;;;3.33;;
27209;SDS011;14721;42.668;23.386;2022-10-19T04:29:16;5.97;;;2.50;;
27209;SDS011;14721;42.668;23.386;2022-10-19T04:31:43;6.30;;;3.07;;
27209;SDS011;14721;42.668;23.386;2022-10-19T04:34:09;5.43;;;3.60;;
27209;SDS011;14721;42.668;23.386;2022-10-19T04:36:36;6.57;;;3.73;;
27209;SDS011;14721;42.668;23.386;2022-10-19T04:39:02;7.27;;;4.20;;
27209;SDS011;14721;42.668;23.386;2022-10-19T04:41:29;11.93;;;4.30;;
27209;SDS011;14721;42.668;23.386;2022-10-19T04:43:56;10.23;;;4.53;;
27209;SDS011;14721;42.668;23.386;2022-10-19T04:46:25;11.37;;;5.90;;
27209;SDS011;14721;42.668;23.386;2022-10-19T04:48:53;13.47;;;6.43;;
27209;SDS011;14721;42.668;23.386;2022-10-19T04:51:20;17.53;;;7.70;;
27209;SDS011;14721;42.668;23.386;2022-10-19T04:53:46;19.77;;;7.30;;
27209;SDS011;14721;42.668;23.386;2022-10-19T04:56:16;15.33;;;7.47;;
27209;SDS011;14721;42.668;23.386;2022-10-19T04:58:43;17.70;;;6.83;;
27209;SDS011;14721;42.668;23.386;2022-10-19T05:01:16;13.57;;;6.97;;
27209;SDS011;14721;42.668;23.386;2022-10-19T05:03:44;18.90;;;7.93;;
27209;SDS011;14721;42.668;23.386;2022-10-19T05:06:10;22.60;;;8.50;;
27209;SDS011;14721;42.668;23.386;2022-10-19T05:08:37;15.73;;;8.00;;
27209;SDS011;14721;42.668;23.386;2022-10-19T05:11:06;18.27;;;8.33;;
27209;SDS011;14721;42.668;23.386;2022-10-19T05:13:37;14.30;;;7.33;;
27209;SDS011;14721;42.668;23.386;2022-10-19T05:16:03;22.93;;;6.80;;
27209;SDS011;14721;42.668;23.386;2022-10-19T05:18:30;13.50;;;6.60;;
27209;SDS011;14721;42.668;23.386;2022-10-19T05:21:03;16.70;;;7.67;;
27209;SDS011;14721;42.668;23.386;2022-10-19T05:23:29;19.20;;;7.40;;
27209;SDS011;14721;42.668;23.386;2022-10-19T05:26:02;21.00;;;7.60;;
27209;SDS011;14721;42.668;23.386;2022-10-19T05:28:29;14.50;;;7.27;;
27209;SDS011;14721;42.668;23.386;2022-10-19T05:30:55;8.97;;;5.03;;
27209;SDS011;14721;42.668;23.386;2022-10-19T05:33:29;10.37;;;4.80;;
27209;SDS011;14721;42.668;23.386;2022-10-19T05:35:54;7.37;;;3.93;;
27209;SDS011;14721;42.668;23.386;2022-10-19T05:38:20;6.03;;;3.00;;
27209;SDS011;14721;42.668;23.386;2022-10-19T05:40:45;9.63;;;3.27;;
27209;SDS011;14721;42.668;23.386;2022-10-19T05:43:11;8.63;;;3.80;;
27209;SDS011;14721;42.668;23.386;2022-10-19T05:45:37;15.70;;;4.50;;
27209;SDS011;14721;42.668;23.386;2022-10-19T05:48:02;7.20;;;3.83;;
27209;SDS011;14721;42.668;23.386;2022-10-19T05:50:28;11.87;;;3.20;;
27209;SDS011;14721;42.668;23.386;2022-10-19T05:52:53;6.47;;;3.30;;
27209;SDS011;14721;42.668;23.386;2022-10-19T05:55:19;6.77;;;2.80;;
27209;SDS011;14721;42.668;23.386;2022-10-19T05:57:44;9.97;;;3.27;;
27209;SDS011;14721;42.668;23.386;2022-10-19T06:00:10;6.83;;;3.40;;
27209;SDS011;14721;42.668;23.386;2022-10-19T06:02:36;6.63;;;3.50;;
27209;SDS011;14721;42.668;23.386;2022-10-19T06:05:01;6.83;;;3.57;;
27209;SDS011;14721;42.668;23.386;2022-10-19T06:07:26;6.70;;;3.67;;
27209;SDS011;14721;42.668;23.386;2022-10-19T06:09:52;16.90;;;4.33;;
27209;SDS011;14721;42.668;23.386;2022-10-19T06:12:18;7.23;;;4.30;;
27209;SDS011;14721;42.668;23.386;2022-10-19T06:14:44;19.47;;;7.97;;
27209;SDS011;14721;42.668;23.386;2022-10-19T06:17:09;19.73;;;9.27;;
27209;SDS011;14721;42.668;23.386;2022-10-19T06:19:35;20.70;;;10.30;;
27209;SDS011;14721;42.668;23.386;2022-10-19T06:22:01;29.17;;;11.07;;
27209;SDS011;14721;42.668;23.386;2022-10-19T06:24:26;26.73;;;12.33;;
27209;SDS011;14721;42.668;23.386;2022-10-19T06:26:51;33.17;;;15.90;;
27209;SDS011;14721;42.668;23.386;2022-10-19T06:29:17;27.40;;;14.73;;
27209;SDS011;14721;42.668;23.386;2022-10-19T06:31:42;39.17;;;15.63;;
27209;SDS011;14721;42.668;23.386;2022-10-19T06:34:09;25.77;;;14.43;;
27209;SDS011;14721;42.668;23.386;2022-10-19T06:36:35;34.77;;;13.70;;
27209;SDS011;14721;42.668;23.386;2022-10-19T06:39:00;32.87;;;13.60;;
27209;SDS011;14721;42.668;23.386;2022-10-19T06:41:26;27.17;;;12.30;;
27209;SDS011;14721;42.668;23.386;2022-10-19T06:43:53;25.83;;;13.13;;
27209;SDS011;14721;42.668;23.386;2022-10-19T06:46:20;27.77;;;13.17;;
27209;SDS011;14721;42.668;23.386;2022-10-19T06:48:57;25.73;;;12.27;;
27209;SDS011;14721;42.668;23.386;2022-10-19T06:51:25;31.83;;;13.60;;
27209;SDS011;14721;42.668;23.386;2022-10-19T06:53:52;23.30;;;12.70;;
27209;SDS011;14721;42.668;23.386;2022-10-19T06:56:18;35.42;;;14.65;;
27209;SDS011;14721;42.668;23.386;2022-10-19T06:58:44;30.77;;;14.00;;
27209;SDS011;14721;42.668;23.386;2022-10-19T07:01:10;23.95;;;13.73;;
27209;SDS011;14721;42.668;23.386;2022-10-19T07:03:37;26.65;;;12.07;;
27209;SDS011;14721;42.668;23.386;2022-10-19T07:06:05;26.87;;;12.10;;
27209;SDS011;14721;42.668;23.386;2022-10-19T07:08:32;22.38;;;12.18;;
27209;SDS011;14721;42.668;23.386;2022-10-19T07:11:00;24.13;;;10.88;;
27209;SDS011;14721;42.668;23.386;2022-10-19T07:13:28;28.48;;;11.88;;
27209;SDS011;14721;42.668;23.386;2022-10-19T07:15:58;20.90;;;11.82;;
27209;SDS011;14721;42.668;23.386;2022-10-19T07:18:27;20.95;;;10.60;;
27209;SDS011;14721;42.668;23.386;2022-10-19T07:21:03;23.35;;;12.57;;
27209;SDS011;14721;42.668;23.386;2022-10-19T07:23:31;24.70;;;11.05;;
27209;SDS011;14721;42.668;23.386;2022-10-19T07:25:58;24.45;;;11.52;;
27209;SDS011;14721;42.668;23.386;2022-10-19T07:28:36;24.88;;;11.85;;
27209;SDS011;14721;42.668;23.386;2022-10-19T07:31:06;24.60;;;11.95;;
27209;SDS011;14721;42.668;23.386;2022-10-19T07:33:33;21.05;;;12.23;;
27209;SDS011;14721;42.668;23.386;2022-10-19T07:36:00;24.27;;;13.75;;
27209;SDS011;14721;42.668;23.386;2022-10-19T07:38:26;21.45;;;11.15;;
27209;SDS011;14721;42.668;23.386;2022-10-19T07:40:58;21.55;;;10.88;;
27209;SDS011;14721;42.668;23.386;2022-10-19T07:43:25;26.02;;;11.55;;
27209;SDS011;14721;42.668;23.386;2022-10-19T07:45:55;27.92;;;11.32;;
27209;SDS011;14721;42.668;23.386;2022-10-19T07:48:22;20.40;;;11.55;;
27209;SDS011;14721;42.668;23.386;2022-10-19T07:50:48;24.17;;;11.30;;
27209;SDS011;14721;42.668;23.386;2022-10-19T07:53:13;20.63;;;11.85;;
27209;SDS011;14721;42.668;23.386;2022-10-19T07:55:38;25.52;;;11.23;;
27209;SDS011;14721;42.668;23.386;2022-10-19T07:58:04;19.67;;;10.73;;
27209;SDS011;14721;42.668;23.386;2022-10-19T08:00:29;20.52;;;11.82;;
27209;SDS011;14721;42.668;23.386;2022-10-19T08:02:55;17.60;;;11.70;;
27209;SDS011;14721;42.668;23.386;2022-10-19T08:05:20;18.52;;;10.38;;
27209;SDS011;14721;42.668;23.386;2022-10-19T08:07:46;21.90;;;11.38;;
27209;SDS011;14721;42.668;23.386;2022-10-19T08:10:11;26.73;;;11.35;;
27209;SDS011;14721;42.668;23.386;2022-10-19T08:12:37;18.20;;;10.88;;
27209;SDS011;14721;42.668;23.386;2022-10-19T08:15:02;22.15;;;11.18;;
27209;SDS011;14721;42.668;23.386;2022-10-19T08:17:31;34.42;;;11.80;;
27209;SDS011;14721;42.668;23.386;2022-10-19T08:19:59;16.85;;;10.32;;
27209;SDS011;14721;42.668;23.386;2022-10-19T08:22:24;22.33;;;10.85;;
27209;SDS011;14721;42.668;23.386;2022-10-19T08:24:49;27.15;;;11.25;;
27209;SDS011;14721;42.668;23.386;2022-10-19T08:27:15;20.17;;;9.90;;
27209;SDS011;14721;42.668;23.386;2022-10-19T08:29:40;21.67;;;10.02;;
27209;SDS011;14721;42.668;23.386;2022-10-19T08:32:06;18.13;;;8.90;;
27209;SDS011;14721;42.668;23.386;2022-10-19T08:34:31;17.75;;;8.88;;
27209;SDS011;14721;42.668;23.386;2022-10-19T08:37:01;19.40;;;8.87;;
27209;SDS011;14721;42.668;23.386;2022-10-19T08:39:27;17.50;;;8.63;;
27209;SDS011;14721;42.668;23.386;2022-10-19T08:45:19;22.87;;;10.37;;
27209;SDS011;14721;42.668;23.386;2022-10-19T08:47:57;19.93;;;10.90;;
27209;SDS011;14721;42.668;23.386;2022-10-19T08:50:25;19.67;;;10.63;;
27209;SDS011;14721;42.668;23.386;2022-10-19T08:53:04;22.80;;;9.93;;
27209;SDS011;14721;42.668;23.386;2022-10-19T09:01:19;17.08;;;10.63;;
27209;SDS011;14721;42.668;23.386;2022-10-19T09:09:30;13.10;;;5.77;;
27209;SDS011;14721;42.668;23.386;2022-10-19T09:12:03;20.00;;;6.47;;
27209;SDS011;14721;42.668;23.386;2022-10-19T09:17:15;11.05;;;4.70;;
27209;SDS011;14721;42.668;23.386;2022-10-19T09:19:43;8.40;;;4.30;;
27209;SDS011;14721;42.668;23.386;2022-10-19T09:22:28;10.27;;;3.72;;
27209;SDS011;14721;42.668;23.386;2022-10-19T09:25:20;5.10;;;3.00;;
27209;SDS011;14721;42.668;23.386;2022-10-19T09:27:47;5.10;;;2.80;;
27209;SDS011;14721;42.668;23.386;2022-10-19T09:30:21;5.55;;;2.75;;
27209;SDS011;14721;42.668;23.386;2022-10-19T09:32:48;7.65;;;2.75;;
27209;SDS011;14721;42.668;23.386;2022-10-19T09:37:54;12.93;;;3.47;;
27209;SDS011;14721;42.668;23.386;2022-10-19T09:40:22;6.70;;;2.95;;
27209;SDS011;14721;42.668;23.386;2022-10-19T09:42:52;13.18;;;3.05;;
27209;SDS011;14721;42.668;23.386;2022-10-19T09:48:19;10.05;;;2.83;;
27209;SDS011;14721;42.668;23.386;2022-10-19T09:50:58;9.82;;;3.00;;
27209;SDS011;14721;42.668;23.386;2022-10-19T09:53:25;6.20;;;3.22;;
27209;SDS011;14721;42.668;23.386;2022-10-19T09:56:36;5.38;;;2.88;;
27209;SDS011;14721;42.668;23.386;2022-10-19T09:58:51;12.25;;;3.40;;
27209;SDS011;14721;42.668;23.386;2022-10-19T10:01:34;16.33;;;3.40;;
27209;SDS011;14721;42.668;23.386;2022-10-19T10:06:41;7.53;;;2.95;;
27209;SDS011;14721;42.668;23.386;2022-10-19T10:09:19;6.88;;;2.88;;
27209;SDS011;14721;42.668;23.386;2022-10-19T10:11:50;7.25;;;2.80;;
27209;SDS011;14721;42.668;23.386;2022-10-19T10:14:19;7.65;;;3.08;;
27209;SDS011;14721;42.668;23.386;2022-10-19T10:16:47;10.27;;;2.28;;
27209;SDS011;14721;42.668;23.386;2022-10-19T10:19:19;5.30;;;2.30;;
27209;SDS011;14721;42.668;23.386;2022-10-19T10:21:51;6.07;;;2.10;;
27209;SDS011;14721;42.668;23.386;2022-10-19T10:24:21;11.25;;;2.90;;
27209;SDS011;14721;42.668;23.386;2022-10-19T10:26:50;4.72;;;2.28;;
27209;SDS011;14721;42.668;23.386;2022-10-19T10:32:06;7.07;;;2.60;;
27209;SDS011;14721;42.668;23.386;2022-10-19T10:36:58;6.22;;;3.10;;
27209;SDS011;14721;42.668;23.386;2022-10-19T10:39:25;4.80;;;2.30;;
27209;SDS011;14721;42.668;23.386;2022-10-19T10:41:52;6.40;;;2.45;;
27209;SDS011;14721;42.668;23.386;2022-10-19T10:44:21;4.50;;;2.33;;
27209;SDS011;14721;42.668;23.386;2022-10-19T10:46:55;9.95;;;3.90;;
27209;SDS011;14721;42.668;23.386;2022-10-19T10:49:23;6.97;;;3.58;;
27209;SDS011;14721;42.668;23.386;2022-10-19T10:51:59;4.97;;;2.45;;
27209;SDS011;14721;42.668;23.386;2022-10-19T10:54:29;8.52;;;2.40;;
27209;SDS011;14721;42.668;23.386;2022-10-19T10:59:41;5.30;;;2.20;;
27209;SDS011;14721;42.668;23.386;2022-10-19T11:05:30;4.00;;;2.30;;
27209;SDS011;14721;42.668;23.386;2022-10-19T11:08:58;6.78;;;3.50;;
27209;SDS011;14721;42.668;23.386;2022-10-19T11:11:03;5.45;;;3.10;;
27209;SDS011;14721;42.668;23.386;2022-10-19T11:16:10;5.35;;;2.60;;
27209;SDS011;14721;42.668;23.386;2022-10-19T11:18:41;7.05;;;2.70;;
27209;SDS011;14721;42.668;23.386;2022-10-19T11:26:34;4.03;;;2.47;;
27209;SDS011;14721;42.668;23.386;2022-10-19T11:31:53;4.43;;;2.05;;
27209;SDS011;14721;42.668;23.386;2022-10-19T11:45:23;29.75;;;3.95;;
27209;SDS011;14721;42.668;23.386;2022-10-19T11:53:49;4.18;;;1.88;;
27209;SDS011;14721;42.668;23.386;2022-10-19T11:56:36;4.38;;;2.22;;
27209;SDS011;14721;42.668;23.386;2022-10-19T12:02:10;4.22;;;1.88;;
27209;SDS011;14721;42.668;23.386;2022-10-19T12:12:54;6.63;;;2.42;;
27209;SDS011;14721;42.668;23.386;2022-10-19T12:15:27;4.82;;;1.90;;
27209;SDS011;14721;42.668;23.386;2022-10-19T12:17:59;8.43;;;2.53;;
27209;SDS011;14721;42.668;23.386;2022-10-19T12:26:18;5.38;;;2.30;;
27209;SDS011;14721;42.668;23.386;2022-10-19T12:28:46;9.57;;;2.13;;
27209;SDS011;14721;42.668;23.386;2022-10-19T12:31:14;5.10;;;2.08;;
27209;SDS011;14721;42.668;23.386;2022-10-19T12:38:55;5.30;;;2.10;;
27209;SDS011;14721;42.668;23.386;2022-10-19T12:46:44;4.63;;;2.30;;
27209;SDS011;14721;42.668;23.386;2022-10-19T12:52:00;5.93;;;2.70;;
27209;SDS011;14721;42.668;23.386;2022-10-19T12:54:28;4.05;;;2.20;;
27209;SDS011;14721;42.668;23.386;2022-10-19T12:56:57;5.85;;;2.65;;
27209;SDS011;14721;42.668;23.386;2022-10-19T13:01:57;5.25;;;2.65;;
27209;SDS011;14721;42.668;23.386;2022-10-19T13:04:26;9.82;;;3.30;;
27209;SDS011;14721;42.668;23.386;2022-10-19T13:09:36;10.18;;;2.90;;
27209;SDS011;14721;42.668;23.386;2022-10-19T13:22:44;8.07;;;3.17;;
27209;SDS011;14721;42.668;23.386;2022-10-19T13:27:45;4.28;;;2.47;;
27209;SDS011;14721;42.668;23.386;2022-10-19T13:38:29;4.65;;;2.53;;
27209;SDS011;14721;42.668;23.386;2022-10-19T13:41:00;8.75;;;4.43;;
27209;SDS011;14721;42.668;23.386;2022-10-19T13:46:33;6.82;;;3.00;;
27209;SDS011;14721;42.668;23.386;2022-10-19T14:03:21;12.30;;;5.95;;
27209;SDS011;14721;42.668;23.386;2022-10-19T14:11:11;5.90;;;3.33;;
27209;SDS011;14721;42.668;23.386;2022-10-19T14:13:39;34.38;;;13.18;;
27209;SDS011;14721;42.668;23.386;2022-10-19T14:16:05;9.00;;;3.95;;
27209;SDS011;14721;42.668;23.386;2022-10-19T14:18:32;10.15;;;3.45;;
27209;SDS011;14721;42.668;23.386;2022-10-19T14:21:00;6.70;;;3.80;;
27209;SDS011;14721;42.668;23.386;2022-10-19T14:23:33;7.70;;;4.30;;
27209;SDS011;14721;42.668;23.386;2022-10-19T14:28:40;8.35;;;3.63;;
27209;SDS011;14721;42.668;23.386;2022-10-19T14:31:08;6.82;;;2.83;;
27209;SDS011;14721;42.668;23.386;2022-10-19T14:33:41;5.47;;;3.13;;
27209;SDS011;14721;42.668;23.386;2022-10-19T14:36:18;6.28;;;2.97;;
27209;SDS011;14721;42.668;23.386;2022-10-19T14:38:47;8.15;;;3.63;;
27209;SDS011;14721;42.668;23.386;2022-10-19T14:41:28;19.23;;;5.82;;
27209;SDS011;14721;42.668;23.386;2022-10-19T14:43:55;11.15;;;3.65;;
27209;SDS011;14721;42.668;23.386;2022-10-19T14:46:27;26.77;;;11.27;;
27209;SDS011;14721;42.668;23.386;2022-10-19T14:49:00;15.27;;;6.43;;
27209;SDS011;14721;42.668;23.386;2022-10-19T14:51:35;10.80;;;4.20;;
27209;SDS011;14721;42.668;23.386;2022-10-19T15:02:14;6.20;;;2.95;;
27209;SDS011;14721;42.668;23.386;2022-10-19T15:04:40;7.40;;;3.50;;
27209;SDS011;14721;42.668;23.386;2022-10-19T15:07:14;7.65;;;3.72;;
27209;SDS011;14721;42.668;23.386;2022-10-19T15:09:47;7.75;;;3.30;;
27209;SDS011;14721;42.668;23.386;2022-10-19T15:12:20;10.52;;;3.80;;
27209;SDS011;14721;42.668;23.386;2022-10-19T15:14:50;5.35;;;3.20;;
27209;SDS011;14721;42.668;23.386;2022-10-19T15:19:54;6.55;;;2.70;;
27209;SDS011;14721;42.668;23.386;2022-10-19T15:24:56;11.05;;;4.45;;
27209;SDS011;14721;42.668;23.386;2022-10-19T15:27:30;7.40;;;3.83;;
27209;SDS011;14721;42.668;23.386;2022-10-19T15:29:56;9.88;;;4.97;;
27209;SDS011;14721;42.668;23.386;2022-10-19T15:32:25;11.60;;;4.07;;
27209;SDS011;14721;42.668;23.386;2022-10-19T15:34:56;8.32;;;3.65;;
27209;SDS011;14721;42.668;23.386;2022-10-19T15:37:23;13.00;;;5.90;;
27209;SDS011;14721;42.668;23.386;2022-10-19T15:39:49;15.82;;;6.18;;
27209;SDS011;14721;42.668;23.386;2022-10-19T15:43:03;8.13;;;4.68;;
27209;SDS011;14721;42.668;23.386;2022-10-19T15:45:27;10.73;;;4.75;;
27209;SDS011;14721;42.668;23.386;2022-10-19T15:50:44;15.15;;;4.45;;
27209;SDS011;14721;42.668;23.386;2022-10-19T15:53:14;8.80;;;4.65;;
27209;SDS011;14721;42.668;23.386;2022-10-19T15:55:40;8.57;;;4.20;;
27209;SDS011;14721;42.668;23.386;2022-10-19T15:58:07;8.38;;;4.63;;
27209;SDS011;14721;42.668;23.386;2022-10-19T16:00:33;10.68;;;5.90;;
27209;SDS011;14721;42.668;23.386;2022-10-19T16:02:59;11.32;;;4.53;;
27209;SDS011;14721;42.668;23.386;2022-10-19T16:05:24;6.30;;;4.20;;
27209;SDS011;14721;42.668;23.386;2022-10-19T16:07:50;11.00;;;4.78;;
27209;SDS011;14721;42.668;23.386;2022-10-19T16:10:17;16.45;;;5.00;;
27209;SDS011;14721;42.668;23.386;2022-10-19T16:12:44;7.70;;;3.83;;
27209;SDS011;14721;42.668;23.386;2022-10-19T16:15:13;10.80;;;4.65;;
27209;SDS011;14721;42.668;23.386;2022-10-19T16:17:42;9.00;;;4.43;;
27209;SDS011;14721;42.668;23.386;2022-10-19T16:20:11;9.98;;;5.68;;
27209;SDS011;14721;42.668;23.386;2022-10-19T16:22:37;8.55;;;5.15;;
27209;SDS011;14721;42.668;23.386;2022-10-19T16:25:02;8.32;;;4.57;;
27209;SDS011;14721;42.668;23.386;2022-10-19T16:27:28;11.80;;;4.60;;
27209;SDS011;14721;42.668;23.386;2022-10-19T16:29:54;13.65;;;5.53;;
27209;SDS011;14721;42.668;23.386;2022-10-19T16:32:19;8.20;;;4.82;;
27209;SDS011;14721;42.668;23.386;2022-10-19T16:34:45;8.43;;;4.95;;
27209;SDS011;14721;42.668;23.386;2022-10-19T16:37:13;16.20;;;7.38;;
27209;SDS011;14721;42.668;23.386;2022-10-19T16:39:38;9.20;;;4.93;;
27209;SDS011;14721;42.668;23.386;2022-10-19T16:42:04;12.00;;;5.30;;
27209;SDS011;14721;42.668;23.386;2022-10-19T16:44:29;10.73;;;5.20;;
27209;SDS011;14721;42.668;23.386;2022-10-19T16:46:55;13.07;;;4.65;;
27209;SDS011;14721;42.668;23.386;2022-10-19T16:49:21;10.02;;;5.00;;
27209;SDS011;14721;42.668;23.386;2022-10-19T16:51:47;10.52;;;5.40;;
27209;SDS011;14721;42.668;23.386;2022-10-19T16:54:15;9.13;;;5.00;;
27209;SDS011;14721;42.668;23.386;2022-10-19T16:56:45;8.87;;;4.53;;
27209;SDS011;14721;42.668;23.386;2022-10-19T16:59:12;10.32;;;5.13;;
27209;SDS011;14721;42.668;23.386;2022-10-19T17:01:40;10.77;;;5.17;;
27209;SDS011;14721;42.668;23.386;2022-10-19T17:04:08;9.75;;;5.53;;
27209;SDS011;14721;42.668;23.386;2022-10-19T17:06:34;11.25;;;5.95;;
27209;SDS011;14721;42.668;23.386;2022-10-19T17:08:59;8.90;;;4.82;;
27209;SDS011;14721;42.668;23.386;2022-10-19T17:13:51;8.35;;;5.22;;
27209;SDS011;14721;42.668;23.386;2022-10-19T17:16:18;12.15;;;6.05;;
27209;SDS011;14721;42.668;23.386;2022-10-19T17:18:45;11.75;;;5.82;;
27209;SDS011;14721;42.668;23.386;2022-10-19T17:21:12;11.52;;;6.00;;
27209;SDS011;14721;42.668;23.386;2022-10-19T17:23:40;13.00;;;5.82;;
27209;SDS011;14721;42.668;23.386;2022-10-19T17:26:06;10.70;;;5.40;;
27209;SDS011;14721;42.668;23.386;2022-10-19T17:28:33;12.27;;;5.43;;
27209;SDS011;14721;42.668;23.386;2022-10-19T17:31:03;10.30;;;5.83;;
27209;SDS011;14721;42.668;23.386;2022-10-19T17:33:34;10.52;;;5.72;;
27209;SDS011;14721;42.668;23.386;2022-10-19T17:36:11;12.95;;;5.45;;
27209;SDS011;14721;42.668;23.386;2022-10-19T17:38:38;8.30;;;5.30;;
27209;SDS011;14721;42.668;23.386;2022-10-19T17:41:05;13.80;;;6.03;;